Time;durP1;ratioP1;P1;durP2;ratioP2;P2;SDS_P1;SDS_P2;PMS_P1;PMS_P2;Temp;Humidity;BMP_temperature;BMP_pressure;BME280_temperature;BME280_humidity;BME280_pressure;Samples;Min_cycle;Max_cycle;Signal;HPM_P1;HPM_P2
2022/11/20 00:51:20;;;;;;;0.70;0.37;;;;;;;5.05;100.00;97424.47;18370293;32;20053;-64
2022/11/20 01:12:38;;;;;;;1.23;0.50;;;;;;;5.16;100.00;97438.88;18369323;32;20074;-64
2022/11/20 01:23:14;;;;;;;0.67;0.57;;;;;;;5.14;100.00;97435.62;18316792;32;20050;-64
2022/11/20 01:33:17;;;;;;;1.27;0.47;;;;;;;5.05;100.00;97443.25;18368354;32;20061;-64
2022/11/20 02:06:15;;;;;;;0.80;0.50;;;;;;;4.50;100.00;97449.94;17987366;32;20067;-64
2022/11/20 02:16:24;;;;;;;1.80;0.50;;;;;;;4.47;100.00;97450.41;18093260;32;20071;-64
2022/11/20 02:26:28;;;;;;;1.07;0.70;;;;;;;4.55;100.00;97458.06;18105809;32;20094;-64
2022/11/20 02:59:16;;;;;;;1.60;0.57;;;;;;;4.64;100.00;97458.53;18364541;32;20097;-64
2022/11/20 03:09:19;;;;;;;1.63;0.73;;;;;;;4.71;100.00;97451.16;18375817;32;20450;-64
2022/11/20 03:19:23;;;;;;;2.63;0.90;;;;;;;4.77;100.00;97446.72;18362257;32;20084;-64
2022/11/20 03:40:48;;;;;;;4.33;0.97;;;;;;;4.80;100.00;97435.53;18369084;32;20062;-64
2022/11/20 04:02:14;;;;;;;1.10;0.70;;;;;;;4.98;100.00;97482.78;18373515;32;20070;-64
2022/11/20 04:56:14;;;;;;;0.57;0.37;;;;;;;4.65;100.00;97466.31;18370196;32;20380;-64
2022/11/20 05:07:10;;;;;;;1.30;0.50;;;;;;;4.48;100.00;97462.75;18369807;32;20065;-63
2022/11/20 05:17:13;;;;;;;0.70;0.40;;;;;;;4.48;100.00;97452.84;18355972;32;20061;-63
2022/11/20 05:27:48;;;;;;;1.03;0.50;;;;;;;4.53;100.00;97452.12;18169510;32;20074;-63
2022/11/20 05:38:17;;;;;;;0.90;0.50;;;;;;;4.56;100.00;97452.50;18165129;32;20539;-63
2022/11/20 05:48:20;;;;;;;1.50;0.70;;;;;;;4.69;100.00;97462.13;18169264;32;20492;-64
2022/11/20 05:58:23;;;;;;;1.13;0.60;;;;;;;4.82;100.00;97470.94;18212922;32;20065;-63
2022/11/20 06:08:51;;;;;;;1.03;0.57;;;;;;;4.85;100.00;97462.41;18367119;32;20105;-64
2022/11/20 06:18:53;;;;;;;0.47;0.33;;;;;;;4.86;100.00;97472.09;18367258;32;20061;-63
2022/11/20 06:40:19;;;;;;;0.30;0.20;;;;;;;4.64;100.00;97470.03;18375942;32;20408;-63
2022/11/20 06:50:22;;;;;;;0.53;0.40;;;;;;;4.61;100.00;97467.84;18378470;32;20082;-63
2022/11/20 07:00:25;;;;;;;0.40;0.27;;;;;;;4.38;100.00;97472.16;18376644;32;20093;-63
2022/11/20 07:10:48;;;;;;;0.60;0.30;;;;;;;4.36;100.00;97452.06;18272540;32;20449;-63
2022/11/20 07:20:51;;;;;;;0.90;0.40;;;;;;;4.48;100.00;97457.38;18376018;32;20061;-63
2022/11/20 07:30:54;;;;;;;0.73;0.50;;;;;;;4.67;100.00;97474.94;18375942;32;20135;-63
2022/11/20 07:51:41;;;;;;;1.80;0.47;;;;;;;5.12;100.00;97499.38;18300726;32;20078;-63
2022/11/20 08:01:45;;;;;;;1.33;0.63;;;;;;;5.32;100.00;97499.75;18300438;32;20078;-63
2022/11/20 08:22:21;;;;;;;2.30;0.20;;;;;;;5.66;100.00;97515.09;18311752;32;20157;-63
2022/11/20 08:32:24;;;;;;;0.43;0.30;;;;;;;5.79;100.00;97528.19;18358050;32;20054;-64
2022/11/20 08:42:51;;;;;;;0.50;0.30;;;;;;;5.96;100.00;97532.75;18314570;32;20101;-63
2022/11/20 08:52:53;;;;;;;0.50;0.40;;;;;;;6.14;100.00;97548.66;18370864;32;20062;-63
2022/11/20 09:02:58;;;;;;;0.70;0.30;;;;;;;6.40;100.00;97557.94;18369331;32;20114;-64
2022/11/20 09:13:02;;;;;;;0.80;0.50;;;;;;;6.70;100.00;97546.00;18368816;32;20054;-64
2022/11/20 09:23:06;;;;;;;1.00;0.57;;;;;;;7.10;100.00;97555.66;18355047;32;20101;-64
2022/11/20 09:33:09;;;;;;;1.00;0.40;;;;;;;7.52;100.00;97561.50;18368266;32;20062;-64
2022/11/20 09:54:46;;;;;;;1.27;0.53;;;;;;;7.75;100.00;97577.34;18367629;32;20065;-64
2022/11/20 10:27:26;;;;;;;3.00;0.90;;;;;;;7.73;98.64;97573.28;18379841;32;20057;-64
2022/11/20 10:37:44;;;;;;;0.90;0.50;;;;;;;8.01;91.33;97569.50;18365686;32;20069;-63
2022/11/20 10:48:23;;;;;;;1.20;0.50;;;;;;;8.16;94.68;97574.22;18378574;32;20432;-64
2022/11/20 10:59:03;;;;;;;1.10;0.60;;;;;;;8.52;86.87;97565.62;18377339;32;20053;-63
2022/11/20 11:42:25;;;;;;;1.40;0.80;;;;;;;8.52;84.71;97482.91;18375647;32;20081;-63
2022/11/20 11:52:30;;;;;;;1.30;0.67;;;;;;;7.96;91.05;97464.47;18360255;32;20081;-65
2022/11/20 12:25:48;;;;;;;0.50;0.20;;;;;;;8.52;77.09;97425.50;18372370;32;20049;-65
2022/11/20 12:36:37;;;;;;;3.53;0.70;;;;;;;8.61;76.53;97405.06;18371319;32;20103;-65
2022/11/20 12:58:24;;;;;;;1.93;1.00;;;;;;;8.88;77.25;97431.84;18356015;32;20547;-63
2022/11/20 13:19:44;;;;;;;1.30;0.47;;;;;;;8.86;85.55;97406.22;18369589;32;20061;-63
2022/11/20 14:03:43;;;;;;;0.50;0.20;;;;;;;8.89;82.34;97346.38;18247145;32;20077;-63
2022/11/20 14:37:05;;;;;;;1.53;0.50;;;;;;;8.59;81.73;97316.41;18359034;32;20058;-65
2022/11/20 14:47:17;;;;;;;1.10;0.30;;;;;;;8.74;79.29;97312.94;18366111;32;20437;-64
2022/11/20 14:57:28;;;;;;;0.53;0.20;;;;;;;8.96;80.57;97280.34;18355745;32;20053;-64
2022/11/20 15:18:30;;;;;;;0.40;0.20;;;;;;;8.31;86.27;97278.03;18375771;32;20384;-63
2022/11/20 15:28:36;;;;;;;1.40;0.50;;;;;;;7.96;88.34;97266.06;18375932;32;20105;-63
2022/11/20 15:38:40;;;;;;;1.10;0.60;;;;;;;7.56;92.59;97242.44;18374443;32;20077;-65
2022/11/20 15:48:53;;;;;;;0.80;0.40;;;;;;;7.25;94.42;97223.44;18360945;32;20446;-63
2022/11/20 15:58:57;;;;;;;1.90;0.80;;;;;;;6.97;97.01;97219.22;18373786;32;20076;-65
2022/11/20 16:31:45;;;;;;;1.27;0.80;;;;;;;6.51;100.00;97251.88;18366078;32;20062;-63
2022/11/20 16:41:48;;;;;;;2.37;0.40;;;;;;;6.48;100.00;97255.06;18371634;32;20061;-65
2022/11/20 16:52:10;;;;;;;1.27;0.70;;;;;;;6.42;100.00;97241.56;18370919;32;20068;-65
2022/11/20 17:02:14;;;;;;;1.17;0.67;;;;;;;6.34;100.00;97239.34;18370676;32;20054;-65
2022/11/20 17:12:45;;;;;;;0.97;0.70;;;;;;;6.32;100.00;97244.19;18370001;32;20109;-65
2022/11/20 17:22:50;;;;;;;2.00;0.60;;;;;;;6.24;100.00;97250.00;18362187;32;20469;-65
2022/11/20 17:44:47;;;;;;;0.70;0.60;;;;;;;6.17;100.00;97246.72;18170078;32;20180;-65
2022/11/20 17:54:54;;;;;;;1.27;0.73;;;;;;;6.22;100.00;97254.78;18169183;32;20078;-65
2022/11/20 18:04:57;;;;;;;0.20;0.10;;;;;;;6.42;97.03;97235.41;18235853;32;20164;-65
2022/11/20 18:15:28;;;;;;;0.70;0.20;;;;;;;6.29;86.92;97223.22;18347275;32;20066;-64
2022/11/20 18:36:54;;;;;;;0.70;0.40;;;;;;;6.10;87.99;97254.94;18377122;32;20062;-65
2022/11/20 18:46:57;;;;;;;0.93;0.33;;;;;;;6.04;96.44;97275.56;18378970;32;20143;-66
2022/11/20 19:08:38;;;;;;;0.90;0.50;;;;;;;5.89;100.00;97265.41;18241486;32;20472;-64
2022/11/20 19:19:09;;;;;;;2.40;0.50;;;;;;;5.80;100.00;97255.34;18147324;32;20497;-65
2022/11/20 19:40:33;;;;;;;0.57;0.30;;;;;;;5.47;100.00;97265.09;18375199;32;20069;-64
2022/11/20 19:50:46;;;;;;;0.80;0.40;;;;;;;5.38;100.00;97288.84;18375017;32;20103;-64
2022/11/20 20:01:44;;;;;;;1.37;0.50;;;;;;;5.34;100.00;97283.16;18109475;32;20087;-64
2022/11/20 20:23:13;;;;;;;1.20;0.40;;;;;;;5.22;100.00;97295.84;18372993;32;20069;-64
2022/11/20 21:18:21;;;;;;;0.40;0.30;;;;;;;4.91;100.00;97365.03;18368942;32;20054;-64
2022/11/20 21:28:24;;;;;;;1.90;0.30;;;;;;;5.03;100.00;97381.84;18369105;32;20115;-64
2022/11/20 21:39:16;;;;;;;0.80;0.30;;;;;;;5.14;100.00;97392.72;18367218;32;20061;-64
2022/11/20 21:49:20;;;;;;;2.13;0.30;;;;;;;5.14;100.00;97376.66;18368156;32;20068;-64
2022/11/20 22:23:25;;;;;;;3.23;0.50;;;;;;;5.09;100.00;97388.91;18365246;32;20058;-64
2022/11/20 22:33:30;;;;;;;2.30;0.60;;;;;;;5.13;100.00;97367.81;18366453;32;20119;-64
2022/11/20 22:43:34;;;;;;;2.15;0.50;;;;;;;4.82;100.00;97345.03;18353209;32;20062;-64
2022/11/20 22:53:37;;;;;;;1.47;0.40;;;;;;;4.47;100.00;97346.81;18352023;32;20058;-64
2022/11/20 23:03:42;;;;;;;3.67;0.73;;;;;;;4.39;100.00;97350.66;18351761;32;20050;-64
2022/11/20 23:13:45;;;;;;;2.30;0.60;;;;;;;4.43;100.00;97347.50;18365448;32;20057;-64
2022/11/20 23:23:50;;;;;;;1.03;0.30;;;;;;;4.52;100.00;97354.13;18374448;32;20080;-64
2022/11/20 23:33:53;;;;;;;2.23;0.40;;;;;;;4.67;100.00;97338.34;18375919;32;20393;-64
2022/11/20 23:43:55;;;;;;;1.40;0.47;;;;;;;4.57;100.00;97343.50;18361330;32;20074;-64
2022/11/20 23:54:45;;;;;;;1.90;0.40;;;;;;;4.61;100.00;97349.22;18375192;32;20053;-64
